Time;durP1;ratioP1;P1;durP2;ratioP2;P2;SDS_P1;SDS_P2;PMS_P1;PMS_P2;Temp;Humidity;BMP_temperature;BMP_pressure;BME280_temperature;BME280_humidity;BME280_pressure;Samples;Min_cycle;Max_cycle;Signal;HPM_P1;HPM_P2
2022/04/19 00:02:24;;;;;;;11.90;7.27;;;;;;;;;;5051951;28;20419;-55
2022/04/19 00:04:51;;;;;;;7.80;7.10;;;;;;;;;;5050836;28;20418;-54
2022/04/19 00:07:17;;;;;;;7.10;6.50;;;;;;;;;;5052295;28;20916;-53
2022/04/19 00:09:43;;;;;;;7.90;7.07;;;;;;;;;;5055594;28;20418;-53
2022/04/19 00:12:09;;;;;;;6.73;6.20;;;;;;;;;;5055568;28;20414;-50
2022/04/19 00:14:35;;;;;;;7.80;7.00;;;;;;;;;;5054194;28;20466;-51
2022/04/19 00:17:01;;;;;;;6.97;6.37;;;;;;;;;;5055430;28;20907;-53
2022/04/19 00:19:28;;;;;;;7.10;6.43;;;;;;;;;;5055219;28;20411;-51
2022/04/19 00:21:54;;;;;;;7.10;6.50;;;;;;;;;;5054036;28;20920;-51
2022/04/19 00:24:20;;;;;;;7.07;6.47;;;;;;;;;;5055646;28;20552;-51
2022/04/19 00:26:46;;;;;;;7.20;6.50;;;;;;;;;;5054092;28;20455;-52
2022/04/19 00:29:12;;;;;;;7.17;6.50;;;;;;;;;;5055189;28;20425;-49
2022/04/19 00:31:38;;;;;;;7.53;6.30;;;;;;;;;;5055233;28;20407;-52
2022/04/19 00:34:04;;;;;;;6.87;6.13;;;;;;;;;;5055106;28;20509;-52
2022/04/19 00:36:30;;;;;;;7.20;6.50;;;;;;;;;;5053741;28;20458;-51
2022/04/19 00:38:56;;;;;;;5.90;5.50;;;;;;;;;;5055087;28;20423;-50
2022/04/19 00:41:22;;;;;;;6.10;5.60;;;;;;;;;;5055227;28;20493;-52
2022/04/19 00:43:49;;;;;;;6.23;5.73;;;;;;;;;;5053791;28;20419;-51
2022/04/19 00:46:15;;;;;;;6.90;6.30;;;;;;;;;;5054978;28;20768;-56
2022/04/19 00:48:44;;;;;;;6.67;6.07;;;;;;;;;;5054828;28;20408;-52
2022/04/19 00:51:10;;;;;;;6.83;6.07;;;;;;;;;;5054801;28;20411;-52
2022/04/19 00:53:36;;;;;;;6.37;5.87;;;;;;;;;;5054727;28;20471;-51
2022/04/19 00:56:03;;;;;;;7.03;5.70;;;;;;;;;;5054820;28;20412;-53
2022/04/19 00:58:29;;;;;;;6.63;6.03;;;;;;;;;;5053369;28;20416;-53
2022/04/19 01:00:55;;;;;;;5.80;5.30;;;;;;;;;;5054679;28;20412;-53
2022/04/19 01:03:21;;;;;;;7.20;5.40;;;;;;;;;;5054701;28;20461;-56
2022/04/19 01:05:48;;;;;;;6.00;5.60;;;;;;;;;;5053603;28;20959;-54
2022/04/19 01:08:14;;;;;;;6.60;6.10;;;;;;;;;;5054540;28;20787;-51
2022/04/19 01:10:42;;;;;;;6.47;5.90;;;;;;;;;;5053229;28;20792;-52
2022/04/19 01:13:17;;;;;;;6.23;5.80;;;;;;;;;;5054500;28;20422;-52
2022/04/19 01:15:50;;;;;;;6.27;5.50;;;;;;;;;;5054465;28;20557;-55
2022/04/19 01:18:20;;;;;;;5.93;5.43;;;;;;;;;;5052998;28;20765;-53
2022/04/19 01:20:48;;;;;;;7.23;6.10;;;;;;;;;;5053152;28;20463;-53
2022/04/19 01:23:14;;;;;;;6.70;6.10;;;;;;;;;;5054199;28;20927;-51
2022/04/19 01:25:40;;;;;;;5.97;5.57;;;;;;;;;;5054159;28;20412;-52
2022/04/19 01:28:07;;;;;;;6.67;6.17;;;;;;;;;;5054188;28;20434;-62
2022/04/19 01:30:33;;;;;;;6.70;6.10;;;;;;;;;;5054054;28;20914;-54
2022/04/19 01:33:00;;;;;;;5.90;5.40;;;;;;;;;;5053970;28;20408;-50
2022/04/19 01:35:26;;;;;;;6.33;5.73;;;;;;;;;;5053883;28;20419;-52
2022/04/19 01:37:52;;;;;;;6.20;5.70;;;;;;;;;;5054045;28;20440;-50
2022/04/19 01:40:18;;;;;;;5.83;5.43;;;;;;;;;;5053853;28;20453;-51
2022/04/19 01:42:48;;;;;;;6.10;5.60;;;;;;;;;;5053860;28;20442;-51
2022/04/19 01:45:18;;;;;;;6.73;5.67;;;;;;;;;;5052622;28;20450;-63
2022/04/19 01:47:45;;;;;;;6.17;5.57;;;;;;;;;;5053655;28;20403;-57
2022/04/19 01:50:12;;;;;;;5.97;5.50;;;;;;;;;;5053667;28;20404;-54
2022/04/19 01:52:39;;;;;;;5.90;5.40;;;;;;;;;;5053626;28;20407;-50
2022/04/19 01:55:07;;;;;;;6.60;6.00;;;;;;;;;;5053595;28;20554;-59
2022/04/19 01:57:33;;;;;;;6.00;5.60;;;;;;;;;;5052181;28;20404;-53
2022/04/19 01:59:59;;;;;;;6.07;5.57;;;;;;;;;;5053525;28;20407;-53
2022/04/19 02:02:25;;;;;;;6.13;5.63;;;;;;;;;;5053473;28;20404;-52
2022/04/19 02:04:51;;;;;;;6.20;5.60;;;;;;;;;;5052172;28;20408;-51
2022/04/19 02:07:17;;;;;;;6.53;5.83;;;;;;;;;;5053435;28;20541;-58
2022/04/19 02:09:43;;;;;;;5.97;5.47;;;;;;;;;;5053212;28;20486;-61
2022/04/19 02:12:09;;;;;;;6.50;5.87;;;;;;;;;;5053221;28;20973;-53
2022/04/19 02:14:36;;;;;;;5.83;5.43;;;;;;;;;;5053153;28;20560;-57
2022/04/19 02:17:02;;;;;;;6.00;5.43;;;;;;;;;;5053173;28;20403;-57
2022/04/19 02:19:28;;;;;;;5.50;5.00;;;;;;;;;;5052936;28;20465;-52
2022/04/19 02:21:54;;;;;;;6.43;5.83;;;;;;;;;;5052986;28;20509;-58
2022/04/19 02:24:20;;;;;;;6.60;6.00;;;;;;;;;;5053111;28;20436;-51
2022/04/19 02:26:46;;;;;;;6.10;5.70;;;;;;;;;;5053062;28;20486;-56
2022/04/19 02:29:15;;;;;;;6.03;5.53;;;;;;;;;;5052815;28;20926;-57
2022/04/19 02:31:41;;;;;;;6.07;5.63;;;;;;;;;;5051418;28;20499;-58
2022/04/19 02:34:07;;;;;;;6.10;5.60;;;;;;;;;;5052888;28;20559;-52
2022/04/19 02:36:33;;;;;;;5.83;5.37;;;;;;;;;;5052765;28;20872;-53
2022/04/19 02:39:02;;;;;;;6.63;5.80;;;;;;;;;;5052987;28;20411;-51
2022/04/19 02:41:28;;;;;;;6.40;5.90;;;;;;;;;;5052737;28;20399;-57
2022/04/19 02:43:54;;;;;;;5.97;5.50;;;;;;;;;;5052895;28;20465;-55
2022/04/19 02:46:20;;;;;;;6.47;5.60;;;;;;;;;;5052910;28;20945;-64
2022/04/19 02:48:46;;;;;;;6.10;5.60;;;;;;;;;;5052696;28;20895;-52
2022/04/19 02:51:12;;;;;;;5.70;5.30;;;;;;;;;;5052689;28;20407;-52
2022/04/19 02:53:38;;;;;;;5.67;5.27;;;;;;;;;;5052530;28;20977;-51
2022/04/19 02:56:04;;;;;;;6.30;5.37;;;;;;;;;;5052628;28;20815;-51
2022/04/19 02:58:30;;;;;;;5.70;5.20;;;;;;;;;;5052475;28;20927;-54
2022/04/19 03:00:56;;;;;;;6.10;5.60;;;;;;;;;;5052610;28;20412;-52
2022/04/19 03:03:22;;;;;;;6.33;5.33;;;;;;;;;;5051313;28;20473;-52
2022/04/19 03:05:48;;;;;;;6.23;5.73;;;;;;;;;;5052443;28;20411;-51
2022/04/19 03:08:14;;;;;;;6.67;6.00;;;;;;;;;;5052573;28;20434;-54
2022/04/19 03:10:40;;;;;;;5.83;5.43;;;;;;;;;;5051161;28;20433;-55
2022/04/19 03:13:06;;;;;;;6.97;6.27;;;;;;;;;;5052394;28;20412;-65
2022/04/19 03:15:34;;;;;;;6.93;6.13;;;;;;;;;;5052435;28;20419;-56
2022/04/19 03:18:01;;;;;;;8.80;5.97;;;;;;;;;;5051154;28;20545;-57
2022/04/19 03:20:27;;;;;;;6.87;6.27;;;;;;;;;;5052235;28;21045;-51
2022/04/19 03:28:25;;;;;;;6.30;5.80;;;;;;;;;;5052238;28;20449;-51
2022/04/19 03:30:51;;;;;;;5.97;5.47;;;;;;;;;;5052404;28;20403;-51
2022/04/19 03:33:17;;;;;;;6.90;6.20;;;;;;;;;;5052134;28;20408;-51
2022/04/19 03:35:43;;;;;;;6.73;6.03;;;;;;;;;;5052193;28;20418;-51
2022/04/19 03:38:10;;;;;;;6.73;6.13;;;;;;;;;;5052099;28;20403;-58
2022/04/19 03:40:36;;;;;;;10.73;6.87;;;;;;;;;;5052046;28;20411;-54
2022/04/19 03:43:06;;;;;;;6.30;5.70;;;;;;;;;;5053499;28;20498;-57
2022/04/19 03:45:33;;;;;;;6.27;5.67;;;;;;;;;;5056015;28;20461;-52
2022/04/19 03:48:00;;;;;;;6.20;5.57;;;;;;;;;;5055869;28;20400;-53
2022/04/19 03:50:27;;;;;;;6.63;6.13;;;;;;;;;;5055860;28;20419;-57
2022/04/19 03:52:53;;;;;;;7.07;6.47;;;;;;;;;;5056059;28;20498;-52
2022/04/19 03:55:20;;;;;;;7.47;6.77;;;;;;;;;;5055559;28;20960;-64
2022/04/19 03:57:46;;;;;;;12.80;6.40;;;;;;;;;;5055813;28;20400;-57
2022/04/19 04:00:12;;;;;;;7.23;6.53;;;;;;;;;;5055650;28;20473;-52
2022/04/19 04:02:38;;;;;;;6.43;5.83;;;;;;;;;;5055892;28;20435;-51
2022/04/19 04:05:05;;;;;;;6.90;6.40;;;;;;;;;;5055531;28;20439;-50
2022/04/19 04:07:31;;;;;;;6.50;5.90;;;;;;;;;;5055607;28;20396;-50
2022/04/19 04:09:57;;;;;;;6.63;6.03;;;;;;;;;;5055655;28;20407;-55
2022/04/19 04:12:23;;;;;;;6.33;5.83;;;;;;;;;;5054419;28;20416;-56
2022/04/19 04:14:49;;;;;;;7.83;6.07;;;;;;;;;;5055658;28;21006;-53
2022/04/19 04:17:15;;;;;;;6.37;5.77;;;;;;;;;;5054224;28;20491;-52
2022/04/19 04:19:47;;;;;;;6.73;5.97;;;;;;;;;;5055361;28;20486;-52
2022/04/19 04:22:13;;;;;;;6.50;5.90;;;;;;;;;;5054038;28;20446;-52
2022/04/19 04:24:39;;;;;;;8.57;6.23;;;;;;;;;;5055235;28;20750;-52
2022/04/19 04:27:05;;;;;;;7.70;6.77;;;;;;;;;;5055302;28;20461;-60
2022/04/19 04:29:31;;;;;;;6.10;5.50;;;;;;;;;;5053923;28;20442;-59
2022/04/19 04:31:57;;;;;;;7.67;6.20;;;;;;;;;;5055158;28;20411;-60
2022/04/19 04:34:23;;;;;;;6.73;6.03;;;;;;;;;;5055210;28;20471;-54
2022/04/19 04:36:49;;;;;;;5.90;5.40;;;;;;;;;;5055230;28;20411;-54
2022/04/19 04:39:15;;;;;;;6.37;5.87;;;;;;;;;;5055161;28;20419;-57
2022/04/19 04:41:42;;;;;;;6.90;6.30;;;;;;;;;;5055225;28;20400;-51
2022/04/19 04:44:08;;;;;;;6.97;6.37;;;;;;;;;;5055137;28;20418;-53
2022/04/19 04:49:36;;;;;;;7.00;6.20;;;;;;;;;;5054792;28;20826;-51
2022/04/19 04:52:03;;;;;;;6.43;5.80;;;;;;;;;;5054927;28;20768;-52
2022/04/19 04:54:29;;;;;;;6.53;6.00;;;;;;;;;;5054315;28;20467;-59
2022/04/19 04:56:55;;;;;;;6.30;5.50;;;;;;;;;;5054564;28;20396;-54
2022/04/19 04:59:24;;;;;;;6.33;5.70;;;;;;;;;;5054795;28;20795;-54
2022/04/19 05:01:50;;;;;;;6.90;6.30;;;;;;;;;;5054571;28;20400;-65
2022/04/19 05:04:16;;;;;;;6.33;5.73;;;;;;;;;;5054348;28;20521;-54
2022/04/19 05:06:42;;;;;;;6.27;5.63;;;;;;;;;;5053029;28;20428;-53
2022/04/19 05:09:08;;;;;;;8.00;5.73;;;;;;;;;;5054298;28;20419;-50
2022/04/19 05:11:34;;;;;;;6.53;5.53;;;;;;;;;;5054495;28;20506;-53
2022/04/19 05:14:01;;;;;;;6.40;5.80;;;;;;;;;;5053699;28;20475;-57
2022/04/19 05:16:30;;;;;;;8.37;6.53;;;;;;;;;;5054213;28;20795;-51
2022/04/19 05:18:56;;;;;;;11.53;6.20;;;;;;;;;;5054103;28;20498;-51
2022/04/19 05:21:22;;;;;;;10.63;6.40;;;;;;;;;;5054157;28;21083;-51
2022/04/19 05:23:51;;;;;;;6.43;5.93;;;;;;;;;;5052657;28;20420;-51
2022/04/19 05:26:17;;;;;;;8.37;6.27;;;;;;;;;;5053976;28;20411;-51
2022/04/19 05:28:43;;;;;;;5.83;5.40;;;;;;;;;;5052833;28;20772;-51
2022/04/19 05:31:09;;;;;;;6.60;6.07;;;;;;;;;;5052440;28;20424;-53
2022/04/19 05:33:35;;;;;;;6.43;5.90;;;;;;;;;;5051879;28;20470;-52
2022/04/19 05:36:01;;;;;;;8.20;7.17;;;;;;;;;;5052451;28;20416;-55
2022/04/19 05:38:27;;;;;;;6.73;6.03;;;;;;;;;;5053107;28;20404;-51
2022/04/19 05:40:53;;;;;;;7.50;6.30;;;;;;;;;;5053782;28;20742;-50
2022/04/19 05:43:19;;;;;;;10.17;7.40;;;;;;;;;;5053851;28;20493;-51
2022/04/19 05:45:46;;;;;;;7.70;6.90;;;;;;;;;;5053203;28;20415;-51
2022/04/19 05:48:12;;;;;;;7.33;6.63;;;;;;;;;;5052419;28;20889;-54
2022/04/19 05:50:39;;;;;;;6.90;6.30;;;;;;;;;;5053564;28;20412;-51
2022/04/19 05:53:05;;;;;;;6.53;5.93;;;;;;;;;;5053421;28;20896;-52
2022/04/19 05:55:32;;;;;;;8.67;6.33;;;;;;;;;;5053439;28;20431;-53
2022/04/19 05:57:58;;;;;;;6.90;6.17;;;;;;;;;;5052246;28;20916;-52
2022/04/19 06:00:24;;;;;;;11.57;5.90;;;;;;;;;;5053197;28;20756;-53
2022/04/19 06:05:35;;;;;;;7.50;5.90;;;;;;;;;;5052681;28;20765;-52
2022/04/19 06:08:01;;;;;;;9.30;6.50;;;;;;;;;;5052978;28;20919;-59
2022/04/19 06:10:27;;;;;;;9.37;6.33;;;;;;;;;;5053305;28;20900;-51
2022/04/19 06:12:53;;;;;;;6.77;6.00;;;;;;;;;;5051929;28;20904;-54
2022/04/19 06:15:19;;;;;;;6.60;6.00;;;;;;;;;;5053223;28;21042;-49
2022/04/19 06:17:45;;;;;;;13.43;7.30;;;;;;;;;;5053023;28;20403;-52
2022/04/19 06:20:12;;;;;;;6.93;6.10;;;;;;;;;;5051514;28;20978;-54
2022/04/19 06:22:38;;;;;;;6.67;6.00;;;;;;;;;;5051728;28;20422;-53
2022/04/19 06:25:05;;;;;;;8.23;6.50;;;;;;;;;;5052679;28;20408;-55
2022/04/19 06:27:31;;;;;;;8.57;6.33;;;;;;;;;;5052680;28;20418;-55
2022/04/19 06:29:58;;;;;;;8.10;6.43;;;;;;;;;;5052701;28;20412;-54
2022/04/19 06:32:24;;;;;;;6.67;6.03;;;;;;;;;;5052938;28;20518;-53
2022/04/19 06:34:50;;;;;;;5.83;5.33;;;;;;;;;;5052767;28;20493;-56
2022/04/19 06:37:16;;;;;;;8.30;6.20;;;;;;;;;;5052362;28;20418;-53
2022/04/19 06:39:42;;;;;;;6.50;5.93;;;;;;;;;;5051492;28;20423;-52
2022/04/19 06:42:09;;;;;;;6.50;5.90;;;;;;;;;;5051314;28;21025;-55
2022/04/19 06:44:35;;;;;;;6.50;5.90;;;;;;;;;;5052799;28;20411;-55
2022/04/19 06:47:01;;;;;;;6.80;6.20;;;;;;;;;;5052680;28;20695;-54
2022/04/19 06:49:27;;;;;;;6.90;5.70;;;;;;;;;;5052539;28;21030;-51
2022/04/19 06:51:54;;;;;;;7.23;6.30;;;;;;;;;;5052605;28;20418;-56
2022/04/19 06:54:20;;;;;;;7.10;6.40;;;;;;;;;;5052659;28;20498;-56
2022/04/19 06:56:46;;;;;;;9.50;6.67;;;;;;;;;;5052667;28;20923;-54
2022/04/19 06:59:12;;;;;;;7.73;6.30;;;;;;;;;;5052379;28;20412;-52
2022/04/19 07:01:40;;;;;;;8.20;6.07;;;;;;;;;;5052373;28;20415;-58
2022/04/19 07:04:07;;;;;;;10.73;6.73;;;;;;;;;;5052282;28;20430;-55
2022/04/19 07:06:33;;;;;;;7.53;6.30;;;;;;;;;;5052438;28;20903;-53
2022/04/19 07:09:03;;;;;;;7.70;6.90;;;;;;;;;;5050964;28;20427;-53
2022/04/19 07:11:29;;;;;;;6.80;6.20;;;;;;;;;;5052191;28;20900;-53
2022/04/19 07:13:56;;;;;;;8.43;5.80;;;;;;;;;;5052156;28;20979;-51
2022/04/19 07:16:22;;;;;;;7.13;6.37;;;;;;;;;;5051213;28;20420;-54
2022/04/19 07:18:48;;;;;;;7.47;6.07;;;;;;;;;;5055266;28;20891;-53
2022/04/19 07:26:45;;;;;;;6.70;6.00;;;;;;;;;;5056657;28;20544;-51
2022/04/19 07:29:12;;;;;;;10.90;5.37;;;;;;;;;;5056287;28;21308;-52
2022/04/19 07:31:42;;;;;;;6.77;6.07;;;;;;;;;;5056335;28;20424;-53
2022/04/19 07:34:09;;;;;;;6.47;5.87;;;;;;;;;;5056084;28;20482;-52
2022/04/19 07:36:40;;;;;;;5.47;5.07;;;;;;;;;;5056250;28;20416;-53
2022/04/19 07:39:07;;;;;;;6.30;5.80;;;;;;;;;;5056192;28;20395;-51
2022/04/19 07:41:34;;;;;;;7.10;6.40;;;;;;;;;;5056327;28;20411;-51
2022/04/19 07:44:01;;;;;;;6.17;5.60;;;;;;;;;;5056053;28;20458;-52
2022/04/19 07:46:28;;;;;;;7.33;6.50;;;;;;;;;;5055986;28;20506;-51
2022/04/19 07:48:54;;;;;;;7.80;6.13;;;;;;;;;;5054363;28;20399;-52
2022/04/19 07:51:21;;;;;;;7.23;6.53;;;;;;;;;;5056180;28;20414;-52
2022/04/19 07:53:47;;;;;;;7.10;6.40;;;;;;;;;;5055756;28;20466;-52
2022/04/19 07:56:16;;;;;;;6.80;6.00;;;;;;;;;;5055696;28;20892;-51
2022/04/19 07:58:49;;;;;;;7.60;6.90;;;;;;;;;;5055661;28;20426;-52
2022/04/19 08:01:15;;;;;;;8.03;7.23;;;;;;;;;;5055629;28;20922;-51
2022/04/19 08:03:42;;;;;;;8.27;6.70;;;;;;;;;;5055551;28;20507;-51
2022/04/19 08:06:08;;;;;;;7.27;6.57;;;;;;;;;;5055608;28;20414;-51
2022/04/19 08:08:35;;;;;;;7.80;6.00;;;;;;;;;;5055539;28;20411;-52
2022/04/19 08:11:01;;;;;;;7.50;6.73;;;;;;;;;;5055416;28;20480;-52
2022/04/19 08:13:27;;;;;;;8.40;6.83;;;;;;;;;;5055335;28;20892;-54
2022/04/19 08:15:53;;;;;;;12.10;7.10;;;;;;;;;;5055598;28;20442;-52
2022/04/19 08:18:19;;;;;;;9.23;6.30;;;;;;;;;;5055461;28;20412;-53
2022/04/19 08:20:46;;;;;;;8.83;6.60;;;;;;;;;;5053723;28;20514;-53
2022/04/19 08:23:13;;;;;;;6.67;5.77;;;;;;;;;;5055243;28;20494;-51
2022/04/19 08:25:40;;;;;;;7.03;6.40;;;;;;;;;;5055187;28;20498;-52
2022/04/19 08:28:06;;;;;;;7.83;6.33;;;;;;;;;;5054733;28;20412;-51
2022/04/19 08:30:32;;;;;;;7.27;6.53;;;;;;;;;;5055105;28;20419;-63
2022/04/19 08:32:58;;;;;;;8.90;6.60;;;;;;;;;;5055018;28;20426;-58
2022/04/19 08:35:24;;;;;;;12.10;7.73;;;;;;;;;;5053708;28;20570;-52
2022/04/19 08:37:51;;;;;;;7.10;6.37;;;;;;;;;;5053978;28;20411;-64
2022/04/19 08:40:17;;;;;;;6.93;6.23;;;;;;;;;;5053729;28;20411;-50
2022/04/19 08:42:44;;;;;;;8.00;7.10;;;;;;;;;;5053415;28;20403;-53
2022/04/19 08:45:11;;;;;;;7.53;6.73;;;;;;;;;;5054903;28;20404;-55
2022/04/19 08:47:38;;;;;;;7.47;6.50;;;;;;;;;;5054653;28;20431;-54
2022/04/19 08:50:06;;;;;;;6.90;5.80;;;;;;;;;;5054654;28;20490;-52
2022/04/19 08:52:32;;;;;;;8.43;6.13;;;;;;;;;;5054521;28;20436;-53
2022/04/19 08:57:44;;;;;;;7.20;6.50;;;;;;;;;;5054874;28;20909;-53
2022/04/19 09:00:10;;;;;;;7.70;6.40;;;;;;;;;;5054509;28;20399;-61
2022/04/19 09:02:37;;;;;;;9.90;7.00;;;;;;;;;;5054338;28;20419;-53
2022/04/19 09:05:22;;;;;;;6.60;5.93;;;;;;;;;;5054101;28;20412;-53
2022/04/19 09:07:52;;;;;;;6.57;5.97;;;;;;;;;;5054428;28;20440;-53
2022/04/19 09:10:31;;;;;;;7.83;7.03;;;;;;;;;;5054382;28;20395;-54
2022/04/19 09:12:58;;;;;;;8.10;6.37;;;;;;;;;;5054358;28;20411;-53
2022/04/19 09:15:31;;;;;;;7.80;6.23;;;;;;;;;;5054306;28;20471;-53
2022/04/19 09:18:00;;;;;;;9.20;7.30;;;;;;;;;;5053226;28;20423;-52
2022/04/19 09:20:31;;;;;;;7.57;6.67;;;;;;;;;;5053995;28;20464;-55
2022/04/19 09:23:02;;;;;;;12.03;7.00;;;;;;;;;;5054063;28;20462;-57
2022/04/19 09:25:29;;;;;;;8.40;7.00;;;;;;;;;;5053911;28;20764;-52
2022/04/19 09:27:56;;;;;;;9.80;7.60;;;;;;;;;;5053939;28;20412;-53
2022/04/19 09:30:25;;;;;;;9.10;7.60;;;;;;;;;;5054052;28;20404;-55
2022/04/19 09:33:05;;;;;;;9.93;7.37;;;;;;;;;;5052899;28;20415;-53
2022/04/19 09:35:38;;;;;;;6.90;6.17;;;;;;;;;;5053711;28;20527;-52
2022/04/19 09:38:05;;;;;;;8.77;7.00;;;;;;;;;;5053920;28;20466;-58
2022/04/19 09:40:34;;;;;;;8.87;6.20;;;;;;;;;;5052662;28;20772;-51
2022/04/19 09:43:10;;;;;;;7.17;6.47;;;;;;;;;;5053685;28;20423;-53
2022/04/19 09:45:54;;;;;;;8.80;6.83;;;;;;;;;;5053651;28;20404;-53
2022/04/19 09:48:20;;;;;;;6.93;6.23;;;;;;;;;;5053852;28;20904;-53
2022/04/19 09:50:53;;;;;;;8.47;6.90;;;;;;;;;;5053481;28;20399;-53
2022/04/19 09:53:20;;;;;;;8.10;7.30;;;;;;;;;;5053664;28;20407;-52
2022/04/19 09:55:47;;;;;;;9.90;7.60;;;;;;;;;;5053477;28;20550;-51
2022/04/19 09:58:14;;;;;;;8.00;7.27;;;;;;;;;;5053108;28;20411;-52
2022/04/19 10:00:40;;;;;;;10.70;7.37;;;;;;;;;;5053225;28;20422;-55
2022/04/19 10:08:38;;;;;;;7.10;6.47;;;;;;;;;;5053096;28;20403;-53
2022/04/19 10:11:04;;;;;;;6.87;6.20;;;;;;;;;;5053302;28;20427;-54
2022/04/19 10:13:32;;;;;;;6.93;6.33;;;;;;;;;;5053050;28;20410;-54
2022/04/19 10:15:59;;;;;;;9.23;6.30;;;;;;;;;;5053205;28;20498;-52
2022/04/19 10:18:28;;;;;;;6.50;5.90;;;;;;;;;;5053048;28;20416;-52
2022/04/19 10:20:58;;;;;;;6.83;6.13;;;;;;;;;;5053152;28;20468;-55
2022/04/19 10:23:34;;;;;;;6.60;6.00;;;;;;;;;;5053071;28;20443;-52
2022/04/19 10:26:12;;;;;;;7.23;6.20;;;;;;;;;;5052878;28;20410;-52
2022/04/19 10:28:38;;;;;;;6.53;5.93;;;;;;;;;;5051426;28;20412;-52
2022/04/19 10:31:05;;;;;;;7.00;6.30;;;;;;;;;;5052645;28;20415;-52
2022/04/19 10:33:51;;;;;;;7.27;6.53;;;;;;;;;;5052540;28;20438;-52
2022/04/19 10:36:23;;;;;;;7.43;6.50;;;;;;;;;;5052854;28;20411;-55
2022/04/19 10:39:09;;;;;;;6.97;6.30;;;;;;;;;;5051316;28;20396;-53
2022/04/19 10:41:55;;;;;;;7.67;6.60;;;;;;;;;;5045629;28;20919;-52
2022/04/19 10:44:47;;;;;;;10.13;6.20;;;;;;;;;;5051403;28;20419;-58
2022/04/19 10:47:20;;;;;;;7.17;6.47;;;;;;;;;;5052583;28;20408;-53
2022/04/19 10:49:49;;;;;;;8.80;6.70;;;;;;;;;;5052435;28;20408;-51
2022/04/19 10:52:33;;;;;;;7.23;6.53;;;;;;;;;;5052243;28;20408;-52
2022/04/19 10:55:07;;;;;;;6.83;6.13;;;;;;;;;;5052168;28;20462;-53
2022/04/19 11:00:27;;;;;;;7.23;6.47;;;;;;;;;;5052648;28;20418;-50
2022/04/19 11:03:00;;;;;;;8.23;6.20;;;;;;;;;;5052541;28;20419;-54
2022/04/19 11:05:41;;;;;;;7.07;6.37;;;;;;;;;;5052456;28;20411;-52
2022/04/19 11:08:20;;;;;;;6.37;5.87;;;;;;;;;;5051063;28;20415;-51
2022/04/19 11:10:46;;;;;;;7.10;6.43;;;;;;;;;;5052108;28;20495;-52
2022/04/19 11:13:12;;;;;;;7.43;6.70;;;;;;;;;;5052211;28;20407;-52
2022/04/19 11:15:38;;;;;;;18.73;6.30;;;;;;;;;;5052251;28;20467;-53
2022/04/19 11:18:22;;;;;;;8.77;6.00;;;;;;;;;;5052292;28;20404;-52
2022/04/19 11:20:48;;;;;;;9.60;6.13;;;;;;;;;;5051922;28;20462;-53
2022/04/19 11:23:18;;;;;;;7.17;6.10;;;;;;;;;;5050924;28;20411;-57
2022/04/19 11:25:45;;;;;;;9.97;5.50;;;;;;;;;;5052249;28;20446;-54
2022/04/19 11:28:11;;;;;;;5.97;5.47;;;;;;;;;;5052131;28;20465;-56
2022/04/19 11:30:58;;;;;;;5.80;5.40;;;;;;;;;;5052257;28;20896;-60
2022/04/19 11:33:28;;;;;;;7.07;6.37;;;;;;;;;;5045303;28;20759;-53
2022/04/19 11:36:04;;;;;;;10.60;6.50;;;;;;;;;;5052291;28;20772;-52
2022/04/19 11:38:31;;;;;;;10.40;5.13;;;;;;;;;;5052037;28;20441;-52
2022/04/19 11:46:44;;;;;;;5.23;4.83;;;;;;;;;;5052082;28;20426;-57
2022/04/19 11:49:34;;;;;;;9.13;5.57;;;;;;;;;;5050773;28;20415;-52
2022/04/19 11:52:01;;;;;;;6.10;5.30;;;;;;;;;;5051878;28;20882;-56
2022/04/19 11:54:28;;;;;;;5.40;4.97;;;;;;;;;;5051699;28;20463;-52
2022/04/19 11:56:57;;;;;;;7.83;5.53;;;;;;;;;;5034260;28;20891;-58
2022/04/19 11:59:34;;;;;;;6.60;5.90;;;;;;;;;;5050682;28;20428;-58
2022/04/19 12:02:00;;;;;;;8.07;6.13;;;;;;;;;;5051663;28;20927;-52
2022/04/19 12:04:27;;;;;;;5.10;4.70;;;;;;;;;;5053990;28;20416;-54
2022/04/19 12:07:03;;;;;;;5.80;5.30;;;;;;;;;;5054328;28;20473;-55
2022/04/19 12:09:32;;;;;;;4.60;4.30;;;;;;;;;;5055418;28;20407;-56
2022/04/19 12:11:59;;;;;;;6.23;5.67;;;;;;;;;;5055427;28;20458;-53
2022/04/19 12:14:25;;;;;;;9.20;5.50;;;;;;;;;;5055575;28;20832;-53
2022/04/19 12:16:57;;;;;;;6.30;5.70;;;;;;;;;;5055664;28;20406;-51
2022/04/19 12:19:34;;;;;;;5.67;5.23;;;;;;;;;;5055164;28;20419;-56
2022/04/19 12:22:00;;;;;;;7.60;5.13;;;;;;;;;;5055238;28;20449;-53
2022/04/19 12:24:28;;;;;;;6.23;5.73;;;;;;;;;;5055046;28;20420;-52
2022/04/19 12:27:06;;;;;;;6.20;5.70;;;;;;;;;;5053913;28;20452;-53
2022/04/19 12:29:33;;;;;;;5.47;5.07;;;;;;;;;;5055034;28;20921;-55
2022/04/19 12:32:03;;;;;;;5.27;4.90;;;;;;;;;;5055035;28;20503;-53
2022/04/19 12:34:35;;;;;;;5.30;4.70;;;;;;;;;;5055168;28;20473;-52
2022/04/19 12:37:08;;;;;;;5.30;5.00;;;;;;;;;;5055080;28;20458;-52
2022/04/19 12:39:34;;;;;;;5.00;4.60;;;;;;;;;;5054964;28;20403;-61
2022/04/19 12:42:05;;;;;;;4.77;4.13;;;;;;;;;;5054924;28;20408;-52
2022/04/19 12:44:35;;;;;;;4.80;4.40;;;;;;;;;;5054953;28;20431;-53
2022/04/19 12:47:03;;;;;;;5.30;4.90;;;;;;;;;;5054821;28;20462;-58
2022/04/19 12:49:30;;;;;;;4.30;4.00;;;;;;;;;;5054734;28;20415;-54
2022/04/19 12:52:05;;;;;;;5.93;4.60;;;;;;;;;;5054765;28;20461;-55
2022/04/19 12:54:32;;;;;;;4.57;4.17;;;;;;;;;;5054808;28;20478;-54
2022/04/19 12:57:05;;;;;;;4.00;3.70;;;;;;;;;;5055059;28;20411;-53
2022/04/19 12:59:32;;;;;;;4.67;4.20;;;;;;;;;;5054591;28;20411;-54
2022/04/19 13:01:58;;;;;;;4.30;3.60;;;;;;;;;;5054673;28;20412;-55
2022/04/19 13:04:24;;;;;;;4.20;3.90;;;;;;;;;;5054378;28;20916;-54
2022/04/19 13:12:22;;;;;;;7.40;4.03;;;;;;;;;;5054715;28;20513;-53
2022/04/19 13:14:52;;;;;;;3.70;3.40;;;;;;;;;;5054169;28;20466;-56
2022/04/19 13:17:21;;;;;;;4.77;4.10;;;;;;;;;;5054025;28;20427;-57
2022/04/19 13:19:47;;;;;;;4.40;3.63;;;;;;;;;;5053829;28;20780;-56
2022/04/19 13:22:14;;;;;;;4.20;3.57;;;;;;;;;;5054397;28;20411;-54
2022/04/19 13:24:43;;;;;;;4.73;3.63;;;;;;;;;;5054247;28;20423;-54
2022/04/19 13:27:11;;;;;;;4.17;3.30;;;;;;;;;;5052948;28;20427;-53
2022/04/19 13:29:38;;;;;;;7.13;3.60;;;;;;;;;;5052833;28;20439;-54
2022/04/19 13:32:04;;;;;;;3.97;3.10;;;;;;;;;;5054209;28;20407;-52
2022/04/19 13:34:30;;;;;;;3.30;3.20;;;;;;;;;;5054192;28;20451;-53
2022/04/19 13:36:57;;;;;;;3.13;3.03;;;;;;;;;;5054012;28;20417;-53
2022/04/19 13:39:23;;;;;;;5.10;2.80;;;;;;;;;;5052947;28;20488;-52
2022/04/19 13:41:49;;;;;;;3.20;3.00;;;;;;;;;;5054241;28;20446;-53
2022/04/19 13:44:17;;;;;;;3.83;3.30;;;;;;;;;;5053917;28;20738;-52
2022/04/19 13:46:44;;;;;;;3.77;3.57;;;;;;;;;;5053750;28;20430;-54
2022/04/19 13:49:10;;;;;;;5.43;3.40;;;;;;;;;;5053864;28;20407;-52
2022/04/19 13:51:39;;;;;;;7.03;3.23;;;;;;;;;;5053744;28;20403;-55
2022/04/19 13:54:06;;;;;;;4.30;3.37;;;;;;;;;;5053570;28;20525;-53
2022/04/19 13:56:32;;;;;;;3.60;3.40;;;;;;;;;;5053687;28;20487;-53
2022/04/19 13:58:58;;;;;;;3.70;3.50;;;;;;;;;;5053614;28;20415;-56
2022/04/19 14:01:30;;;;;;;3.87;3.40;;;;;;;;;;5052286;28;20411;-56
2022/04/19 14:03:56;;;;;;;2.97;2.87;;;;;;;;;;5053564;28;20447;-53
2022/04/19 14:06:22;;;;;;;4.43;3.47;;;;;;;;;;5053602;28;20418;-58
2022/04/19 14:08:51;;;;;;;5.53;4.10;;;;;;;;;;5053433;28;20411;-59
2022/04/19 14:11:17;;;;;;;3.80;3.50;;;;;;;;;;5053286;28;20411;-52
2022/04/19 14:13:43;;;;;;;4.13;3.83;;;;;;;;;;5053055;28;20437;-53
2022/04/19 14:16:10;;;;;;;3.53;3.20;;;;;;;;;;5051987;28;20866;-51
2022/04/19 14:18:37;;;;;;;3.77;3.40;;;;;;;;;;5053191;28;20419;-54
2022/04/19 14:21:03;;;;;;;6.20;3.67;;;;;;;;;;5051664;28;21001;-53
2022/04/19 14:23:29;;;;;;;3.60;3.40;;;;;;;;;;5053080;28;20506;-53
2022/04/19 14:25:55;;;;;;;4.93;3.60;;;;;;;;;;5052827;28;20411;-57
2022/04/19 14:33:15;;;;;;;4.03;3.73;;;;;;;;;;5053091;28;20426;-50
2022/04/19 14:33:55;;;;;;;3.57;3.37;;;;;;;;;;5052852;28;20489;-51
2022/04/19 14:36:21;;;;;;;3.93;3.73;;;;;;;;;;5053095;28;20407;-53
2022/04/19 14:38:47;;;;;;;3.90;3.30;;;;;;;;;;5052858;28;20753;-61
2022/04/19 14:41:15;;;;;;;3.47;3.27;;;;;;;;;;5052839;28;20438;-55
2022/04/19 14:43:41;;;;;;;2.90;2.80;;;;;;;;;;5052615;28;20974;-54
2022/04/19 14:46:07;;;;;;;3.27;3.17;;;;;;;;;;5052762;28;20408;-53
2022/04/19 14:48:34;;;;;;;4.10;3.30;;;;;;;;;;5052616;28;20764;-58
2022/04/19 14:53:44;;;;;;;7.30;3.53;;;;;;;;;;5052320;28;20919;-66
2022/04/19 14:56:10;;;;;;;3.83;3.40;;;;;;;;;;5052547;28;20420;-56
2022/04/19 14:58:37;;;;;;;3.80;3.57;;;;;;;;;;5051361;28;20411;-58
2022/04/19 15:01:05;;;;;;;4.60;4.30;;;;;;;;;;5052411;28;20411;-64
2022/04/19 15:03:31;;;;;;;3.83;3.57;;;;;;;;;;5052637;28;20428;-58
2022/04/19 15:05:57;;;;;;;7.40;4.00;;;;;;;;;;5051047;28;20780;-58
2022/04/19 15:08:23;;;;;;;4.13;3.70;;;;;;;;;;5052541;28;20426;-57
2022/04/19 15:10:50;;;;;;;8.30;3.90;;;;;;;;;;5052488;28;20502;-55
2022/04/19 15:13:16;;;;;;;4.00;3.80;;;;;;;;;;5052324;28;20934;-56
2022/04/19 15:15:42;;;;;;;4.40;3.40;;;;;;;;;;5052258;28;20471;-53
2022/04/19 15:18:13;;;;;;;3.80;3.50;;;;;;;;;;5052239;28;20490;-52
2022/04/19 15:20:39;;;;;;;5.00;3.70;;;;;;;;;;5055273;28;20459;-54
2022/04/19 15:23:06;;;;;;;3.87;3.57;;;;;;;;;;5051026;28;20511;-56
2022/04/19 15:25:32;;;;;;;3.83;3.20;;;;;;;;;;5052159;28;20904;-56
2022/04/19 15:27:59;;;;;;;3.23;3.03;;;;;;;;;;5052180;28;20838;-52
2022/04/19 15:30:26;;;;;;;5.87;3.30;;;;;;;;;;5052093;28;20450;-56
2022/04/19 15:32:53;;;;;;;3.73;3.53;;;;;;;;;;5052198;28;20426;-61